createdAt,value
2022-09-06T00:05:51.245Z,73.48
2022-09-06T00:11:37.139Z,73.27
2022-09-06T00:17:33.901Z,73.27
2022-09-06T00:24:21.268Z,73.07
2022-09-06T00:30:34.770Z,72.70
2022-09-06T00:36:28.656Z,72.60
2022-09-06T00:42:48.724Z,72.40
2022-09-06T00:49:04.234Z,72.05
2022-09-06T00:54:54.611Z,71.73
2022-09-06T01:01:13.727Z,71.47
2022-09-06T01:08:01.901Z,71.42
2022-09-06T01:14:55.155Z,71.00
2022-09-06T01:21:14.631Z,70.83
2022-09-06T01:28:16.519Z,70.79
2022-09-06T01:34:56.807Z,70.82
2022-09-06T01:41:31.315Z,70.57
2022-09-06T01:48:25.461Z,70.51
2022-09-06T01:55:19.278Z,70.08
2022-09-06T02:02:09.961Z,70.21
2022-09-06T02:08:33.413Z,70.28
2022-09-06T02:14:36.534Z,70.47
2022-09-06T02:21:05.950Z,70.79
2022-09-06T02:27:17.471Z,70.98
2022-09-06T02:33:03.753Z,71.03
2022-09-06T02:39:18.199Z,71.26
2022-09-06T02:45:15.280Z,71.38
2022-09-06T02:51:37.984Z,71.58
2022-09-06T02:57:23.268Z,71.83
2022-09-06T03:04:13.706Z,72.16
2022-09-06T03:10:21.119Z,72.25
2022-09-06T03:16:59.283Z,72.81
2022-09-06T03:23:29.628Z,72.69
2022-09-06T03:29:43.406Z,72.99
2022-09-06T03:36:20.863Z,73.36
2022-09-06T03:42:29.330Z,73.58
2022-09-06T03:49:31.704Z,73.92
2022-09-06T03:56:14.694Z,74.19
2022-09-06T04:02:38.639Z,74.26
2022-09-06T04:09:00.055Z,74.27
2022-09-06T04:15:06.499Z,74.41
2022-09-06T04:21:27.867Z,74.31
2022-09-06T04:27:10.276Z,74.52
2022-09-06T04:33:36.769Z,74.60
2022-09-06T04:39:50.267Z,74.67
2022-09-06T04:46:16.528Z,74.87
2022-09-06T04:52:24.294Z,74.87
2022-09-06T04:59:20.315Z,74.90
2022-09-06T05:05:36.060Z,74.66
2022-09-06T05:11:18.574Z,74.95
2022-09-06T05:16:36.149Z,74.80
2022-09-06T05:22:13.096Z,74.52
2022-09-06T05:27:36.651Z,73.98
2022-09-06T05:32:51.417Z,73.39
2022-09-06T05:38:32.420Z,72.73
2022-09-06T05:43:44.195Z,72.43
2022-09-06T05:49:25.374Z,72.10
2022-09-06T05:55:04.464Z,71.67
2022-09-06T06:00:56.404Z,71.20
2022-09-06T06:06:00.988Z,70.98
2022-09-06T06:11:03.219Z,70.81
2022-09-06T06:16:11.730Z,70.82
2022-09-06T06:21:37.393Z,70.43
2022-09-06T06:26:42.559Z,69.92
2022-09-06T06:31:45.407Z,69.01
2022-09-06T06:37:01.258Z,68.38
2022-09-06T06:42:03.723Z,68.02
2022-09-06T06:47:42.911Z,67.85
2022-09-06T06:52:45.286Z,66.95
2022-09-06T06:57:50.658Z,66.49
2022-09-06T07:02:56.384Z,66.04
2022-09-06T07:08:02.133Z,65.86
2022-09-06T07:13:09.900Z,65.47
2022-09-06T07:18:23.495Z,65.36
2022-09-06T07:29:01.021Z,65.69
2022-09-06T07:34:33.345Z,66.06
2022-09-06T07:39:53.474Z,66.72
2022-09-06T07:45:25.693Z,67.59
2022-09-06T07:50:52.617Z,68.22
2022-09-06T07:56:12.361Z,68.45
2022-09-06T08:01:47.705Z,68.64
2022-09-06T08:13:02.000Z,67.56
2022-09-06T08:18:35.366Z,67.22
2022-09-06T08:23:49.615Z,67.13
2022-09-06T08:29:10.895Z,66.63
2022-09-06T08:34:14.452Z,66.04
2022-09-06T08:39:47.443Z,65.67
2022-09-06T08:45:12.548Z,65.88
2022-09-06T08:50:59.680Z,65.45
2022-09-06T08:57:18.368Z,65.31
2022-09-06T09:02:46.839Z,64.94
2022-09-06T09:08:33.396Z,65.08
2022-09-06T09:14:43.362Z,64.67
2022-09-06T09:20:08.423Z,64.10
2022-09-06T09:25:39.331Z,63.82
2022-09-06T09:30:56.932Z,63.48
2022-09-06T09:36:15.223Z,62.52
2022-09-06T09:41:52.322Z,62.34
2022-09-06T09:47:30.556Z,61.95
2022-09-06T09:52:53.268Z,61.16
2022-09-06T09:58:04.996Z,60.49
2022-09-06T10:09:45.163Z,57.67
2022-09-06T10:15:07.055Z,56.88
2022-09-06T10:20:25.542Z,55.58
2022-09-06T10:26:05.003Z,53.78
2022-09-06T10:31:36.682Z,52.49
2022-09-06T10:36:48.439Z,52.08
2022-09-06T10:42:29.509Z,51.99
2022-09-06T10:47:54.984Z,51.26
2022-09-06T10:53:13.299Z,50.40
2022-09-06T11:11:15.737Z,48.21
2022-09-06T11:17:04.945Z,47.75
2022-09-06T11:22:58.684Z,47.77
2022-09-06T11:28:18.472Z,47.36
2022-09-06T11:34:01.496Z,46.66
2022-09-06T11:45:43.233Z,46.72
2022-09-06T11:51:29.190Z,46.31
2022-09-06T11:57:09.359Z,45.39
2022-09-06T12:02:49.016Z,44.69
2022-09-06T12:08:19.002Z,45.33
2022-09-06T12:14:09.484Z,45.36
2022-09-06T12:19:49.691Z,44.88
2022-09-06T12:25:16.485Z,45.17
2022-09-06T12:30:57.511Z,44.77
2022-09-06T12:36:24.870Z,44.92
2022-09-06T12:41:38.373Z,44.94
2022-09-06T12:46:49.004Z,44.93
2022-09-06T12:52:12.927Z,44.79
2022-09-06T12:57:27.619Z,44.49
2022-09-06T13:03:19.472Z,44.40
2022-09-06T13:08:47.612Z,44.56
2022-09-06T13:13:54.986Z,44.47
2022-09-06T13:19:25.923Z,44.11
2022-09-06T13:24:37.419Z,44.11
2022-09-06T13:30:00.463Z,44.20
2022-09-06T13:35:03.932Z,44.15
2022-09-06T13:41:10.596Z,44.37
2022-09-06T13:46:14.836Z,44.18
2022-09-06T13:51:18.415Z,44.84
2022-09-06T13:56:29.021Z,44.09
2022-09-06T14:01:58.577Z,43.74
2022-09-06T14:07:49.486Z,43.76
2022-09-06T14:13:15.931Z,43.73
2022-09-06T14:18:32.557Z,43.24
2022-09-06T14:23:44.183Z,43.60
2022-09-06T14:29:13.130Z,43.58
2022-09-06T14:34:42.511Z,43.36
2022-09-06T14:40:16.645Z,43.37
2022-09-06T14:45:25.561Z,43.15
2022-09-06T14:50:31.543Z,43.12
2022-09-06T14:55:39.763Z,43.31
2022-09-06T15:01:28.593Z,43.43
2022-09-06T15:06:49.224Z,43.55
2022-09-06T15:12:04.669Z,43.88
2022-09-06T15:17:35.582Z,44.24
2022-09-06T15:23:24.856Z,44.63
2022-09-06T15:28:53.193Z,44.44
2022-09-06T15:33:58.497Z,44.17
2022-09-06T15:39:14.710Z,44.27
2022-09-06T15:44:26.627Z,44.32
2022-09-06T15:49:36.383Z,44.78
2022-09-06T15:55:01.739Z,45.00
2022-09-06T16:00:09.722Z,45.19
2022-09-06T16:05:14.848Z,45.49
2022-09-06T16:10:38.678Z,45.59
2022-09-06T16:15:43.206Z,45.64
2022-09-06T16:20:48.220Z,45.93
2022-09-06T16:26:10.204Z,46.46
2022-09-06T16:31:40.373Z,46.97
2022-09-06T16:37:07.982Z,47.43
2022-09-06T16:42:48.035Z,47.89
2022-09-06T16:48:47.570Z,48.42
2022-09-06T16:54:33.521Z,48.79
2022-09-06T17:00:16.260Z,49.47
2022-09-06T17:05:34.665Z,49.78
2022-09-06T17:11:24.899Z,50.27
2022-09-06T17:17:22.101Z,50.88
2022-09-06T17:23:01.761Z,51.37
2022-09-06T17:28:58.493Z,52.22
2022-09-06T17:35:16.267Z,53.05
2022-09-06T17:41:09.020Z,53.97
2022-09-06T17:47:28.200Z,54.70
2022-09-06T17:53:23.418Z,55.29
2022-09-06T17:59:38.532Z,55.83
2022-09-06T18:05:43.719Z,56.36
2022-09-06T18:12:16.319Z,56.79
2022-09-06T18:17:51.750Z,57.10
2022-09-06T18:22:56.731Z,57.41
2022-09-06T18:28:15.917Z,57.76
2022-09-06T18:33:39.364Z,58.29
2022-09-06T18:38:49.471Z,58.78
2022-09-06T18:43:58.092Z,59.13
2022-09-06T18:49:00.862Z,59.36
2022-09-06T18:54:03.020Z,59.76
2022-09-06T18:59:52.284Z,59.89
2022-09-06T19:06:17.110Z,60.09
2022-09-06T19:11:54.713Z,60.32
2022-09-06T19:16:56.697Z,60.55
2022-09-06T19:22:25.192Z,60.79
2022-09-06T19:27:50.898Z,61.15
2022-09-06T19:33:14.827Z,61.59
2022-09-06T19:39:03.663Z,61.78
2022-09-06T19:44:38.631Z,61.83
2022-09-06T19:51:09.904Z,62.04
2022-09-06T19:56:40.029Z,62.26
2022-09-06T20:02:13.527Z,62.66
2022-09-06T20:08:19.682Z,62.95
2022-09-06T20:13:22.840Z,63.39
2022-09-06T20:18:47.641Z,63.62
2022-09-06T20:24:21.878Z,63.72
2022-09-06T20:30:20.809Z,64.04
2022-09-06T20:35:29.595Z,64.19
2022-09-06T20:40:56.564Z,64.46
2022-09-06T20:46:42.272Z,64.73
2022-09-06T20:52:44.004Z,65.14
2022-09-06T20:58:29.898Z,65.30
2022-09-06T21:03:39.203Z,65.15
2022-09-06T21:08:44.370Z,65.04
2022-09-06T21:14:22.795Z,64.87
2022-09-06T21:19:43.883Z,64.62
2022-09-06T21:25:39.695Z,64.22
2022-09-06T21:31:34.704Z,63.72
2022-09-06T21:36:39.091Z,63.32
2022-09-06T21:42:00.672Z,62.88
2022-09-06T21:47:12.010Z,62.54
2022-09-06T21:52:19.979Z,62.46
2022-09-06T21:57:45.695Z,62.34
2022-09-06T22:02:54.370Z,62.58
2022-09-06T22:08:15.961Z,62.70
2022-09-06T22:13:21.188Z,63.05
2022-09-06T22:18:31.566Z,63.07
2022-09-06T22:23:49.006Z,63.23
2022-09-06T22:28:57.584Z,63.34
2022-09-06T22:34:00.549Z,63.46
2022-09-06T22:39:11.581Z,63.73
2022-09-06T22:44:18.477Z,63.76
2022-09-06T22:49:29.133Z,63.99
2022-09-06T22:54:36.220Z,64.34
2022-09-06T23:00:20.927Z,64.48
2022-09-06T23:05:31.367Z,64.72
2022-09-06T23:10:57.785Z,64.98
2022-09-06T23:16:26.981Z,65.03
2022-09-06T23:22:20.345Z,65.16
2022-09-06T23:27:51.056Z,65.08
2022-09-06T23:33:37.963Z,65.03
2022-09-06T23:39:15.260Z,64.94
2022-09-06T23:45:00.757Z,64.78
2022-09-06T23:50:30.061Z,64.73
2022-09-06T23:56:04.393Z,64.76
